หน้าหลัก
METAR-TAF:

METAR-TAF

ท่าอากาศยาน :

ตรอลเฮตตัน-Vänersborg, สวีเดน

ละติจูด: 58-19N, ลองจิจูด: 012-21E, ความสูง: 41 ม.

การสังเกตสภาพอากาศปัจจุบัน

รายงานได้ทำขึ้นเมื่อ 44 นาทีที่แล้ว ณ เวลา 00:50 UTC
ลม 6 นอตจากใต้
อุณหภูมิ 12°C
ความชื้น 88%
ความกดอากาศ 1017 hPa
ทัศนวิสัย 10 กม. หรือมากกว่า

METAR: ESGT 200050Z AUTO 17006KT 9999 NCD 12/10 Q1017

เวลา: 03:34 (01:34 UTC)


TAF: หายไป

สังเกตการณ์สภาพอากาศและพยากรณ์อากาศของสนามบินมากกว่า 4000 แห่ง (รายงาน METAR และ TAF).

สถานีที่ดูได้จะแสดงไว้ด้วยจุดสีเหลืองและสีแดงบนแผนที่.

เลื่อนเมาส์ไปเหนือจุดเพื่อดูชื่อสถานี.

แล้วคลิกเพื่อดูสังเกตการณ์และการพยากรณ์สภาพอากาศ.

ในการเปลี่ยนแผนที่: คลิกที่ปุ่มสีเขียวที่มีกากบาทสีดำเพื่อซูมเข้า; ที่ปุ่มสีเขียวที่มีขีดเพื่อซูมออก; หรือที่ลูกศรสีเขียวเพื่อไปยังแผนที่ที่อยู่ติดกัน.


METAR-TAF: